sensor_id;sensor_type;location;lat;lon;timestamp;pressure;altitude;pressure_sealevel;temperature;humidity
41218;BME280;26950;50.960;7.138;2024-02-28T00:00:59;100959.00;;;7.89;90.58
41218;BME280;26950;50.960;7.138;2024-02-28T00:03:26;100960.78;;;7.90;91.47
41218;BME280;26950;50.960;7.138;2024-02-28T00:05:53;100961.94;;;7.97;91.47
41218;BME280;26950;50.960;7.138;2024-02-28T00:08:19;100961.22;;;7.99;91.60
41218;BME280;26950;50.960;7.138;2024-02-28T00:10:46;100958.03;;;8.06;91.44
41218;BME280;26950;50.960;7.138;2024-02-28T00:13:14;100955.81;;;8.16;90.65
41218;BME280;26950;50.960;7.138;2024-02-28T00:15:41;100963.00;;;8.21;91.21
41218;BME280;26950;50.960;7.138;2024-02-28T00:18:08;100963.59;;;8.35;91.28
41218;BME280;26950;50.960;7.138;2024-02-28T00:20:36;100959.50;;;8.40;89.61
41218;BME280;26950;50.960;7.138;2024-02-28T00:23:03;100967.78;;;8.51;89.00
41218;BME280;26950;50.960;7.138;2024-02-28T00:25:29;100971.25;;;8.50;88.70
41218;BME280;26950;50.960;7.138;2024-02-28T00:27:56;100981.81;;;8.53;89.39
41218;BME280;26950;50.960;7.138;2024-02-28T00:30:23;100981.19;;;8.58;88.35
41218;BME280;26950;50.960;7.138;2024-02-28T00:32:49;100979.50;;;8.60;88.40
41218;BME280;26950;50.960;7.138;2024-02-28T00:35:16;100983.03;;;8.61;88.28
41218;BME280;26950;50.960;7.138;2024-02-28T00:37:44;100986.41;;;8.58;88.42
41218;BME280;26950;50.960;7.138;2024-02-28T00:40:11;100993.13;;;8.52;88.77
41218;BME280;26950;50.960;7.138;2024-02-28T00:42:38;100996.88;;;8.58;88.62
41218;BME280;26950;50.960;7.138;2024-02-28T00:45:07;100968.44;;;8.45;88.19
41218;BME280;26950;50.960;7.138;2024-02-28T00:47:34;100990.88;;;8.61;88.12
41218;BME280;26950;50.960;7.138;2024-02-28T00:50:01;100997.91;;;8.62;87.93
41218;BME280;26950;50.960;7.138;2024-02-28T00:52:28;100983.47;;;8.72;87.17
41218;BME280;26950;50.960;7.138;2024-02-28T00:54:57;100988.34;;;8.62;87.22
41218;BME280;26950;50.960;7.138;2024-02-28T00:57:25;100993.75;;;8.67;87.27
41218;BME280;26950;50.960;7.138;2024-02-28T00:59:51;100990.22;;;8.67;86.99
41218;BME280;26950;50.960;7.138;2024-02-28T01:02:19;100991.00;;;8.64;87.55
41218;BME280;26950;50.960;7.138;2024-02-28T01:04:46;100987.63;;;8.67;87.78
41218;BME280;26950;50.960;7.138;2024-02-28T01:07:13;100989.53;;;8.71;87.18
41218;BME280;26950;50.960;7.138;2024-02-28T01:09:39;100994.97;;;8.75;87.76
41218;BME280;26950;50.960;7.138;2024-02-28T01:12:07;100991.81;;;8.84;86.73
41218;BME280;26950;50.960;7.138;2024-02-28T01:14:34;100992.59;;;8.81;86.85
41218;BME280;26950;50.960;7.138;2024-02-28T01:17:00;100989.09;;;8.81;87.86
41218;BME280;26950;50.960;7.138;2024-02-28T01:19:27;100986.59;;;8.84;87.27
41218;BME280;26950;50.960;7.138;2024-02-28T01:21:53;100984.03;;;8.85;87.11
41218;BME280;26950;50.960;7.138;2024-02-28T01:24:20;100980.72;;;8.89;86.51
41218;BME280;26950;50.960;7.138;2024-02-28T01:26:48;100983.53;;;8.94;86.73
41218;BME280;26950;50.960;7.138;2024-02-28T01:29:16;100968.28;;;8.84;86.16
41218;BME280;26950;50.960;7.138;2024-02-28T01:31:42;100976.38;;;8.90;86.00
41218;BME280;26950;50.960;7.138;2024-02-28T01:34:09;100976.38;;;8.90;85.74
41218;BME280;26950;50.960;7.138;2024-02-28T01:36:35;100975.53;;;8.91;86.14
41218;BME280;26950;50.960;7.138;2024-02-28T01:39:02;100957.81;;;8.84;86.58
41218;BME280;26950;50.960;7.138;2024-02-28T01:41:28;100961.25;;;8.83;86.91
41218;BME280;26950;50.960;7.138;2024-02-28T01:43:55;100958.66;;;8.83;86.62
41218;BME280;26950;50.960;7.138;2024-02-28T01:46:25;100970.94;;;8.85;86.76
41218;BME280;26950;50.960;7.138;2024-02-28T01:48:52;100966.25;;;8.77;87.25
41218;BME280;26950;50.960;7.138;2024-02-28T01:51:19;100965.22;;;8.73;87.99
41218;BME280;26950;50.960;7.138;2024-02-28T01:53:47;100966.94;;;8.73;88.14
41218;BME280;26950;50.960;7.138;2024-02-28T01:56:14;100975.94;;;8.79;87.69
41218;BME280;26950;50.960;7.138;2024-02-28T01:58:43;100973.75;;;8.90;87.48
41218;BME280;26950;50.960;7.138;2024-02-28T02:01:12;100971.84;;;8.86;87.73
41218;BME280;26950;50.960;7.138;2024-02-28T02:03:42;100972.50;;;8.80;86.21
41218;BME280;26950;50.960;7.138;2024-02-28T02:06:09;100971.47;;;8.77;87.43
41218;BME280;26950;50.960;7.138;2024-02-28T02:08:37;100974.44;;;8.86;87.76
41218;BME280;26950;50.960;7.138;2024-02-28T02:11:04;100979.00;;;8.90;88.10
41218;BME280;26950;50.960;7.138;2024-02-28T02:13:31;100973.91;;;8.93;87.28
41218;BME280;26950;50.960;7.138;2024-02-28T02:15:57;100964.97;;;8.88;87.38
41218;BME280;26950;50.960;7.138;2024-02-28T02:18:25;100969.41;;;8.90;86.96
41218;BME280;26950;50.960;7.138;2024-02-28T02:20:59;100972.56;;;8.82;86.92
41218;BME280;26950;50.960;7.138;2024-02-28T02:23:30;100976.38;;;8.90;87.11
41218;BME280;26950;50.960;7.138;2024-02-28T02:25:56;100986.97;;;8.93;86.63
41218;BME280;26950;50.960;7.138;2024-02-28T02:28:23;100992.22;;;8.93;86.90
41218;BME280;26950;50.960;7.138;2024-02-28T02:30:49;101001.13;;;8.98;86.70
41218;BME280;26950;50.960;7.138;2024-02-28T02:33:16;100992.47;;;8.99;86.08
41218;BME280;26950;50.960;7.138;2024-02-28T02:35:43;100985.38;;;8.97;85.90
41218;BME280;26950;50.960;7.138;2024-02-28T02:38:10;100981.84;;;8.96;85.48
41218;BME280;26950;50.960;7.138;2024-02-28T02:40:38;100982.44;;;8.89;86.09
41218;BME280;26950;50.960;7.138;2024-02-28T02:43:04;100972.69;;;8.85;86.54
41218;BME280;26950;50.960;7.138;2024-02-28T02:45:31;100976.28;;;8.87;86.67
41218;BME280;26950;50.960;7.138;2024-02-28T02:47:57;100975.28;;;8.85;86.68
41218;BME280;26950;50.960;7.138;2024-02-28T02:50:24;100977.31;;;8.92;86.48
41218;BME280;26950;50.960;7.138;2024-02-28T02:52:50;100980.78;;;8.91;85.82
41218;BME280;26950;50.960;7.138;2024-02-28T02:55:17;100980.72;;;8.89;86.06
41218;BME280;26950;50.960;7.138;2024-02-28T02:57:45;100983.13;;;8.85;86.84
41218;BME280;26950;50.960;7.138;2024-02-28T03:00:12;100990.41;;;8.92;86.79
41218;BME280;26950;50.960;7.138;2024-02-28T03:02:38;100985.38;;;8.97;85.89
41218;BME280;26950;50.960;7.138;2024-02-28T03:05:06;100989.84;;;8.99;85.68
41218;BME280;26950;50.960;7.138;2024-02-28T03:07:32;100986.41;;;9.00;85.73
41218;BME280;26950;50.960;7.138;2024-02-28T03:09:59;100984.41;;;8.95;86.06
41218;BME280;26950;50.960;7.138;2024-02-28T03:12:25;100989.75;;;8.98;86.35
41218;BME280;26950;50.960;7.138;2024-02-28T03:14:53;100986.50;;;9.03;86.51
41218;BME280;26950;50.960;7.138;2024-02-28T03:17:20;100978.94;;;9.11;86.01
41218;BME280;26950;50.960;7.138;2024-02-28T03:19:46;100986.97;;;9.15;85.43
41218;BME280;26950;50.960;7.138;2024-02-28T03:22:13;100986.75;;;9.09;85.45
41218;BME280;26950;50.960;7.138;2024-02-28T03:24:40;100987.53;;;9.07;85.45
41218;BME280;26950;50.960;7.138;2024-02-28T03:27:07;100986.63;;;9.06;85.29
41218;BME280;26950;50.960;7.138;2024-02-28T03:29:34;100997.03;;;9.05;85.40
41218;BME280;26950;50.960;7.138;2024-02-28T03:32:02;101001.25;;;9.01;86.13
41218;BME280;26950;50.960;7.138;2024-02-28T03:34:29;100987.38;;;9.04;87.14
41218;BME280;26950;50.960;7.138;2024-02-28T03:36:55;101001.69;;;9.12;86.25
41218;BME280;26950;50.960;7.138;2024-02-28T03:39:22;100995.97;;;9.22;84.07
41218;BME280;26950;50.960;7.138;2024-02-28T03:41:48;101002.84;;;9.18;84.31
41218;BME280;26950;50.960;7.138;2024-02-28T03:44:15;101000.28;;;9.20;83.90
41218;BME280;26950;50.960;7.138;2024-02-28T03:46:41;101017.75;;;9.21;84.19
41218;BME280;26950;50.960;7.138;2024-02-28T03:49:09;101024.06;;;9.26;83.50
41218;BME280;26950;50.960;7.138;2024-02-28T03:51:39;101016.72;;;9.17;83.75
41218;BME280;26950;50.960;7.138;2024-02-28T03:54:05;101012.25;;;8.93;84.60
41218;BME280;26950;50.960;7.138;2024-02-28T03:56:32;101012.66;;;8.81;86.06
41218;BME280;26950;50.960;7.138;2024-02-28T03:59:00;101020.47;;;8.60;87.23
41218;BME280;26950;50.960;7.138;2024-02-28T04:01:27;101012.72;;;8.61;88.14
41218;BME280;26950;50.960;7.138;2024-02-28T04:03:53;101015.84;;;8.74;88.11
41218;BME280;26950;50.960;7.138;2024-02-28T04:06:21;101015.28;;;8.81;87.70
41218;BME280;26950;50.960;7.138;2024-02-28T04:08:48;101010.34;;;8.88;87.60
41218;BME280;26950;50.960;7.138;2024-02-28T04:11:14;101020.47;;;9.02;86.87
41218;BME280;26950;50.960;7.138;2024-02-28T04:13:41;101021.81;;;8.92;86.15
41218;BME280;26950;50.960;7.138;2024-02-28T04:16:08;101024.31;;;8.89;86.76
41218;BME280;26950;50.960;7.138;2024-02-28T04:18:34;101025.09;;;8.86;87.55
41218;BME280;26950;50.960;7.138;2024-02-28T04:21:01;101029.84;;;8.97;87.33
41218;BME280;26950;50.960;7.138;2024-02-28T04:23:29;101028.28;;;9.00;86.76
41218;BME280;26950;50.960;7.138;2024-02-28T04:25:55;101035.28;;;9.01;86.11
41218;BME280;26950;50.960;7.138;2024-02-28T04:28:22;101038.50;;;8.94;85.12
41218;BME280;26950;50.960;7.138;2024-02-28T04:30:48;101033.25;;;8.94;85.66
41218;BME280;26950;50.960;7.138;2024-02-28T04:33:15;101042.38;;;9.04;85.48
41218;BME280;26950;50.960;7.138;2024-02-28T04:35:41;101045.38;;;9.13;85.07
41218;BME280;26950;50.960;7.138;2024-02-28T04:38:08;101037.56;;;9.14;85.21
41218;BME280;26950;50.960;7.138;2024-02-28T04:40:36;101034.16;;;9.17;85.29
41218;BME280;26950;50.960;7.138;2024-02-28T04:43:03;101023.69;;;9.17;84.42
41218;BME280;26950;50.960;7.138;2024-02-28T04:45:30;101038.16;;;9.30;84.75
41218;BME280;26950;50.960;7.138;2024-02-28T04:47:56;101046.03;;;9.30;82.86
41218;BME280;26950;50.960;7.138;2024-02-28T04:50:24;101041.28;;;9.19;82.04
41218;BME280;26950;50.960;7.138;2024-02-28T04:52:50;101046.91;;;9.08;82.79
41218;BME280;26950;50.960;7.138;2024-02-28T04:55:17;101047.84;;;9.10;83.40
41218;BME280;26950;50.960;7.138;2024-02-28T04:57:45;101049.78;;;9.14;83.48
41218;BME280;26950;50.960;7.138;2024-02-28T05:00:12;101049.47;;;9.06;83.78
41218;BME280;26950;50.960;7.138;2024-02-28T05:02:38;101058.53;;;9.14;83.71
41218;BME280;26950;50.960;7.138;2024-02-28T05:05:05;101063.16;;;9.22;82.97
41218;BME280;26950;50.960;7.138;2024-02-28T05:07:32;101066.19;;;9.10;83.56
41218;BME280;26950;50.960;7.138;2024-02-28T05:09:59;101077.28;;;9.04;84.67
41218;BME280;26950;50.960;7.138;2024-02-28T05:12:25;101075.91;;;9.12;83.64
41218;BME280;26950;50.960;7.138;2024-02-28T05:14:53;101075.69;;;9.08;84.27
41218;BME280;26950;50.960;7.138;2024-02-28T05:17:20;101073.88;;;9.05;84.09
41218;BME280;26950;50.960;7.138;2024-02-28T05:19:46;101081.56;;;9.02;85.16
41218;BME280;26950;50.960;7.138;2024-02-28T05:22:13;101081.53;;;9.01;85.26
41218;BME280;26950;50.960;7.138;2024-02-28T05:24:40;101074.75;;;8.85;84.16
41218;BME280;26950;50.960;7.138;2024-02-28T05:27:08;101083.88;;;8.74;85.10
41218;BME280;26950;50.960;7.138;2024-02-28T05:29:35;101083.16;;;8.78;85.98
41218;BME280;26950;50.960;7.138;2024-02-28T05:32:04;101078.56;;;8.72;86.11
41218;BME280;26950;50.960;7.138;2024-02-28T05:34:31;101081.63;;;8.83;86.29
41218;BME280;26950;50.960;7.138;2024-02-28T05:36:57;101082.59;;;8.85;85.82
41218;BME280;26950;50.960;7.138;2024-02-28T05:39:26;101096.13;;;8.75;84.03
41218;BME280;26950;50.960;7.138;2024-02-28T05:41:54;101092.09;;;8.62;85.12
41218;BME280;26950;50.960;7.138;2024-02-28T05:44:21;101090.28;;;8.61;85.80
41218;BME280;26950;50.960;7.138;2024-02-28T05:46:47;101087.50;;;8.56;86.11
41218;BME280;26950;50.960;7.138;2024-02-28T05:49:15;101107.22;;;8.69;87.19
41218;BME280;26950;50.960;7.138;2024-02-28T05:51:42;101107.75;;;8.81;87.76
41218;BME280;26950;50.960;7.138;2024-02-28T05:54:10;101106.56;;;8.94;86.75
41218;BME280;26950;50.960;7.138;2024-02-28T05:56:36;101104.88;;;8.96;86.02
41218;BME280;26950;50.960;7.138;2024-02-28T05:59:03;101110.13;;;8.96;85.59
41218;BME280;26950;50.960;7.138;2024-02-28T06:01:29;101098.44;;;8.88;85.41
41218;BME280;26950;50.960;7.138;2024-02-28T06:03:56;101122.09;;;8.91;85.20
41218;BME280;26950;50.960;7.138;2024-02-28T06:06:23;101116.69;;;8.86;85.14
41218;BME280;26950;50.960;7.138;2024-02-28T06:08:51;101120.94;;;8.84;86.21
41218;BME280;26950;50.960;7.138;2024-02-28T06:11:17;101128.31;;;8.93;86.43
41218;BME280;26950;50.960;7.138;2024-02-28T06:13:44;101126.13;;;8.83;85.11
41218;BME280;26950;50.960;7.138;2024-02-28T06:16:13;101131.31;;;8.81;85.33
41218;BME280;26950;50.960;7.138;2024-02-28T06:18:40;101140.88;;;8.81;84.80
41218;BME280;26950;50.960;7.138;2024-02-28T06:21:06;101144.38;;;8.81;85.40
41218;BME280;26950;50.960;7.138;2024-02-28T06:23:34;101147.19;;;8.86;85.35
41218;BME280;26950;50.960;7.138;2024-02-28T06:26:01;101145.53;;;8.88;85.06
41218;BME280;26950;50.960;7.138;2024-02-28T06:28:27;101151.72;;;8.90;85.14
41218;BME280;26950;50.960;7.138;2024-02-28T06:30:54;101155.66;;;9.00;85.02
41218;BME280;26950;50.960;7.138;2024-02-28T06:33:20;101163.56;;;9.01;85.69
41218;BME280;26950;50.960;7.138;2024-02-28T06:35:47;101164.78;;;9.09;84.70
41218;BME280;26950;50.960;7.138;2024-02-28T06:38:13;101162.56;;;9.18;83.46
41218;BME280;26950;50.960;7.138;2024-02-28T06:40:41;101157.44;;;9.22;82.17
41218;BME280;26950;50.960;7.138;2024-02-28T06:43:07;101161.72;;;9.19;82.51
41218;BME280;26950;50.960;7.138;2024-02-28T06:45:34;101168.75;;;9.21;81.64
41218;BME280;26950;50.960;7.138;2024-02-28T06:48:01;101170.28;;;9.15;81.80
41218;BME280;26950;50.960;7.138;2024-02-28T06:50:28;101163.13;;;9.11;80.61
41218;BME280;26950;50.960;7.138;2024-02-28T06:52:55;101167.00;;;9.00;80.87
41218;BME280;26950;50.960;7.138;2024-02-28T06:55:21;101164.31;;;8.99;80.30
41218;BME280;26950;50.960;7.138;2024-02-28T06:57:49;101159.31;;;8.84;80.20
41218;BME280;26950;50.960;7.138;2024-02-28T07:00:16;101163.69;;;8.64;81.89
41218;BME280;26950;50.960;7.138;2024-02-28T07:02:44;101155.91;;;8.65;81.69
41218;BME280;26950;50.960;7.138;2024-02-28T07:05:10;101167.53;;;8.72;82.80
41218;BME280;26950;50.960;7.138;2024-02-28T07:07:37;101168.06;;;8.84;82.48
41218;BME280;26950;50.960;7.138;2024-02-28T07:10:04;101164.88;;;8.91;81.13
41218;BME280;26950;50.960;7.138;2024-02-28T07:12:31;101163.59;;;8.82;81.03
41218;BME280;26950;50.960;7.138;2024-02-28T07:14:59;101157.06;;;8.72;81.07
41218;BME280;26950;50.960;7.138;2024-02-28T07:17:26;101166.59;;;8.51;81.21
41218;BME280;26950;50.960;7.138;2024-02-28T07:19:52;101178.00;;;8.53;83.29
41218;BME280;26950;50.960;7.138;2024-02-28T07:22:19;101177.81;;;8.68;83.48
41218;BME280;26950;50.960;7.138;2024-02-28T07:24:46;101180.19;;;8.82;83.12
41218;BME280;26950;50.960;7.138;2024-02-28T07:27:12;101177.22;;;8.94;81.77
41218;BME280;26950;50.960;7.138;2024-02-28T07:29:39;101170.25;;;8.95;80.07
41218;BME280;26950;50.960;7.138;2024-02-28T07:32:07;101174.72;;;8.97;80.37
41218;BME280;26950;50.960;7.138;2024-02-28T07:34:33;101183.13;;;8.90;80.40
41218;BME280;26950;50.960;7.138;2024-02-28T07:37:00;101185.69;;;8.88;80.83
41218;BME280;26950;50.960;7.138;2024-02-28T07:39:27;101179.56;;;8.88;80.61
41218;BME280;26950;50.960;7.138;2024-02-28T07:41:53;101195.00;;;8.82;80.19
41218;BME280;26950;50.960;7.138;2024-02-28T07:44:20;101193.50;;;8.87;80.51
41218;BME280;26950;50.960;7.138;2024-02-28T07:46:46;101196.09;;;8.87;80.33
41218;BME280;26950;50.960;7.138;2024-02-28T07:49:14;101199.47;;;8.84;80.48
41218;BME280;26950;50.960;7.138;2024-02-28T07:51:41;101193.06;;;8.78;80.26
41218;BME280;26950;50.960;7.138;2024-02-28T07:54:07;101192.94;;;8.75;81.05
41218;BME280;26950;50.960;7.138;2024-02-28T07:56:34;101205.94;;;8.73;80.94
41218;BME280;26950;50.960;7.138;2024-02-28T07:59:00;101193.06;;;8.78;81.88
41218;BME280;26950;50.960;7.138;2024-02-28T08:01:27;101204.66;;;9.04;82.38
41218;BME280;26950;50.960;7.138;2024-02-28T08:03:53;101202.94;;;9.04;79.44
41218;BME280;26950;50.960;7.138;2024-02-28T08:06:21;101201.13;;;8.82;79.03
41218;BME280;26950;50.960;7.138;2024-02-28T08:08:48;101204.31;;;8.75;80.28
41218;BME280;26950;50.960;7.138;2024-02-28T08:11:14;101199.81;;;8.73;81.16
41218;BME280;26950;50.960;7.138;2024-02-28T08:13:41;101182.50;;;8.55;82.14
41218;BME280;26950;50.960;7.138;2024-02-28T08:16:09;101196.53;;;8.77;82.82
41218;BME280;26950;50.960;7.138;2024-02-28T08:18:35;101208.06;;;9.01;82.50
41218;BME280;26950;50.960;7.138;2024-02-28T08:21:02;101210.00;;;9.26;82.48
41218;BME280;26950;50.960;7.138;2024-02-28T08:23:31;101207.91;;;9.38;80.22
41218;BME280;26950;50.960;7.138;2024-02-28T08:25:57;101207.72;;;9.34;79.63
41218;BME280;26950;50.960;7.138;2024-02-28T08:28:23;101211.28;;;9.36;78.00
41218;BME280;26950;50.960;7.138;2024-02-28T08:30:50;101213.72;;;9.31;78.10
41218;BME280;26950;50.960;7.138;2024-02-28T08:33:16;101216.53;;;9.36;78.33
41218;BME280;26950;50.960;7.138;2024-02-28T08:35:43;101218.72;;;9.46;77.90
41218;BME280;26950;50.960;7.138;2024-02-28T08:38:09;101221.53;;;9.51;79.67
41218;BME280;26950;50.960;7.138;2024-02-28T08:40:37;101223.13;;;9.68;77.80
41218;BME280;26950;50.960;7.138;2024-02-28T08:43:04;101236.28;;;9.69;76.06
41218;BME280;26950;50.960;7.138;2024-02-28T08:45:31;101228.94;;;9.82;76.44
41218;BME280;26950;50.960;7.138;2024-02-28T08:47:57;101227.94;;;10.00;74.98
41218;BME280;26950;50.960;7.138;2024-02-28T08:50:26;101238.34;;;9.99;72.29
41218;BME280;26950;50.960;7.138;2024-02-28T08:52:53;101237.16;;;9.91;71.27
41218;BME280;26950;50.960;7.138;2024-02-28T08:55:19;101241.38;;;9.66;71.96
41218;BME280;26950;50.960;7.138;2024-02-28T08:57:48;101236.53;;;9.55;72.57
41218;BME280;26950;50.960;7.138;2024-02-28T09:00:15;101241.00;;;9.57;74.02
41218;BME280;26950;50.960;7.138;2024-02-28T09:02:42;101234.94;;;9.58;72.54
41218;BME280;26950;50.960;7.138;2024-02-28T09:05:09;101235.25;;;9.66;72.09
41218;BME280;26950;50.960;7.138;2024-02-28T09:07:35;101236.66;;;9.58;72.49
41218;BME280;26950;50.960;7.138;2024-02-28T09:10:03;101228.81;;;9.58;72.21
41218;BME280;26950;50.960;7.138;2024-02-28T09:12:30;101223.81;;;9.64;73.02
41218;BME280;26950;50.960;7.138;2024-02-28T09:14:58;101233.03;;;9.75;73.29
41218;BME280;26950;50.960;7.138;2024-02-28T09:17:25;101240.16;;;9.79;72.96
41218;BME280;26950;50.960;7.138;2024-02-28T09:19:52;101237.16;;;9.91;72.71
41218;BME280;26950;50.960;7.138;2024-02-28T09:22:18;101242.88;;;9.81;71.93
41218;BME280;26950;50.960;7.138;2024-02-28T09:24:46;101240.28;;;9.61;71.99
41218;BME280;26950;50.960;7.138;2024-02-28T09:27:13;101228.53;;;9.72;72.42
41218;BME280;26950;50.960;7.138;2024-02-28T09:29:39;101246.19;;;9.77;70.50
41218;BME280;26950;50.960;7.138;2024-02-28T09:32:07;101261.66;;;9.70;71.74
41218;BME280;26950;50.960;7.138;2024-02-28T09:34:34;101256.78;;;9.80;71.79
41218;BME280;26950;50.960;7.138;2024-02-28T09:37:01;101248.38;;;9.87;72.84
41218;BME280;26950;50.960;7.138;2024-02-28T09:39:29;101246.78;;;9.92;71.35
41218;BME280;26950;50.960;7.138;2024-02-28T09:41:57;101252.66;;;9.64;71.42
41218;BME280;26950;50.960;7.138;2024-02-28T09:44:23;101254.22;;;9.39;72.90
41218;BME280;26950;50.960;7.138;2024-02-28T09:46:51;101261.25;;;9.61;73.13
41218;BME280;26950;50.960;7.138;2024-02-28T09:49:19;101256.78;;;9.59;72.95
41218;BME280;26950;50.960;7.138;2024-02-28T09:51:49;101266.19;;;9.54;72.77
41218;BME280;26950;50.960;7.138;2024-02-28T09:54:15;101265.13;;;9.69;73.91
41218;BME280;26950;50.960;7.138;2024-02-28T09:56:42;101260.38;;;9.61;71.84
41218;BME280;26950;50.960;7.138;2024-02-28T09:59:09;101256.63;;;9.75;72.07
41218;BME280;26950;50.960;7.138;2024-02-28T10:01:42;101252.56;;;9.83;70.34
41218;BME280;26950;50.960;7.138;2024-02-28T10:04:09;101259.16;;;9.94;69.71
41218;BME280;26950;50.960;7.138;2024-02-28T10:06:39;101249.00;;;9.81;70.61
41218;BME280;26950;50.960;7.138;2024-02-28T10:09:06;101261.25;;;10.03;71.82
41218;BME280;26950;50.960;7.138;2024-02-28T10:11:33;101249.66;;;10.41;70.98
41218;BME280;26950;50.960;7.138;2024-02-28T10:14:01;101238.38;;;10.66;68.16
41218;BME280;26950;50.960;7.138;2024-02-28T10:16:27;101230.59;;;10.93;67.75
41218;BME280;26950;50.960;7.138;2024-02-28T10:18:54;101235.47;;;10.83;65.61
41218;BME280;26950;50.960;7.138;2024-02-28T10:21:20;101240.25;;;11.18;65.09
41218;BME280;26950;50.960;7.138;2024-02-28T10:23:49;101236.03;;;10.98;66.38
41218;BME280;26950;50.960;7.138;2024-02-28T10:26:15;101241.00;;;11.40;64.33
41218;BME280;26950;50.960;7.138;2024-02-28T10:28:42;101231.16;;;11.59;61.85
41218;BME280;26950;50.960;7.138;2024-02-28T10:31:10;101223.13;;;11.55;63.31
41218;BME280;26950;50.960;7.138;2024-02-28T10:33:37;101224.09;;;11.57;62.80
41218;BME280;26950;50.960;7.138;2024-02-28T10:36:05;101230.84;;;11.76;61.36
41218;BME280;26950;50.960;7.138;2024-02-28T10:38:32;101223.16;;;12.09;60.55
41218;BME280;26950;50.960;7.138;2024-02-28T10:41:00;101221.22;;;12.03;60.00
41218;BME280;26950;50.960;7.138;2024-02-28T10:43:28;101228.94;;;11.97;59.58
41218;BME280;26950;50.960;7.138;2024-02-28T10:45:56;101228.34;;;12.34;61.67
41218;BME280;26950;50.960;7.138;2024-02-28T10:48:24;101225.28;;;12.51;59.40
41218;BME280;26950;50.960;7.138;2024-02-28T10:50:51;101223.03;;;12.63;57.32
41218;BME280;26950;50.960;7.138;2024-02-28T10:53:21;101222.84;;;12.87;56.53
41218;BME280;26950;50.960;7.138;2024-02-28T10:55:49;101213.88;;;12.50;57.13
41218;BME280;26950;50.960;7.138;2024-02-28T10:58:18;101232.75;;;12.35;56.65
41218;BME280;26950;50.960;7.138;2024-02-28T11:00:49;101235.41;;;12.37;58.18
41218;BME280;26950;50.960;7.138;2024-02-28T11:03:17;101219.69;;;12.68;57.64
41218;BME280;26950;50.960;7.138;2024-02-28T11:05:44;101232.31;;;12.80;56.89
41218;BME280;26950;50.960;7.138;2024-02-28T11:08:20;101238.38;;;13.08;55.18
41218;BME280;26950;50.960;7.138;2024-02-28T11:10:47;101220.78;;;13.73;54.59
41218;BME280;26950;50.960;7.138;2024-02-28T11:13:22;101218.03;;;14.45;53.67
41218;BME280;26950;50.960;7.138;2024-02-28T11:15:49;101224.38;;;14.96;50.06
41218;BME280;26950;50.960;7.138;2024-02-28T11:18:16;101217.41;;;14.98;50.40
41218;BME280;26950;50.960;7.138;2024-02-28T11:20:43;101227.91;;;15.42;48.50
41218;BME280;26950;50.960;7.138;2024-02-28T11:23:11;101220.19;;;14.62;49.10
41218;BME280;26950;50.960;7.138;2024-02-28T11:25:39;101219.44;;;14.28;50.77
41218;BME280;26950;50.960;7.138;2024-02-28T11:28:06;101222.25;;;14.37;51.52
41218;BME280;26950;50.960;7.138;2024-02-28T11:30:34;101219.81;;;14.87;50.89
41218;BME280;26950;50.960;7.138;2024-02-28T11:33:01;101213.03;;;15.01;49.15
41218;BME280;26950;50.960;7.138;2024-02-28T11:35:27;101211.34;;;15.03;48.41
41218;BME280;26950;50.960;7.138;2024-02-28T11:37:54;101201.16;;;15.75;48.12
41218;BME280;26950;50.960;7.138;2024-02-28T11:40:22;101199.31;;;16.96;45.97
41218;BME280;26950;50.960;7.138;2024-02-28T11:42:50;101203.41;;;16.06;44.62
41218;BME280;26950;50.960;7.138;2024-02-28T11:45:16;101190.91;;;17.39;43.97
41218;BME280;26950;50.960;7.138;2024-02-28T11:47:45;101191.00;;;17.48;42.14
41218;BME280;26950;50.960;7.138;2024-02-28T11:50:12;101192.78;;;17.52;42.36
41218;BME280;26950;50.960;7.138;2024-02-28T11:52:40;101183.38;;;17.86;42.30
41218;BME280;26950;50.960;7.138;2024-02-28T11:55:07;101186.78;;;17.71;41.20
41218;BME280;26950;50.960;7.138;2024-02-28T11:57:33;101176.88;;;19.26;39.48
41218;BME280;26950;50.960;7.138;2024-02-28T12:00:03;101174.25;;;19.82;38.29
41218;BME280;26950;50.960;7.138;2024-02-28T12:02:30;101164.13;;;20.91;36.88
41218;BME280;26950;50.960;7.138;2024-02-28T12:05:01;101159.69;;;22.02;34.18
41218;BME280;26950;50.960;7.138;2024-02-28T12:07:29;101161.28;;;21.16;33.95
41218;BME280;26950;50.960;7.138;2024-02-28T12:09:56;101159.16;;;19.57;36.39
41218;BME280;26950;50.960;7.138;2024-02-28T12:12:22;101161.81;;;19.78;36.84
41218;BME280;26950;50.960;7.138;2024-02-28T12:14:50;101161.50;;;20.82;35.60
41218;BME280;26950;50.960;7.138;2024-02-28T12:17:16;101143.84;;;20.60;35.28
41218;BME280;26950;50.960;7.138;2024-02-28T12:19:44;101140.47;;;19.97;35.97
41218;BME280;26950;50.960;7.138;2024-02-28T12:22:11;101142.09;;;18.54;37.33
41218;BME280;26950;50.960;7.138;2024-02-28T12:24:38;101140.44;;;17.33;40.43
41218;BME280;26950;50.960;7.138;2024-02-28T12:27:04;101135.06;;;17.26;41.57
41218;BME280;26950;50.960;7.138;2024-02-28T12:29:31;101128.78;;;17.15;40.02
41218;BME280;26950;50.960;7.138;2024-02-28T12:31:58;101129.34;;;16.81;41.47
41218;BME280;26950;50.960;7.138;2024-02-28T12:34:24;101125.88;;;16.85;42.02
41218;BME280;26950;50.960;7.138;2024-02-28T12:36:51;101123.81;;;16.64;41.60
41218;BME280;26950;50.960;7.138;2024-02-28T12:39:20;101118.13;;;16.29;42.84
41218;BME280;26950;50.960;7.138;2024-02-28T12:41:47;101115.41;;;16.26;44.01
41218;BME280;26950;50.960;7.138;2024-02-28T12:44:14;101107.84;;;15.86;42.49
41218;BME280;26950;50.960;7.138;2024-02-28T12:46:41;101104.22;;;15.81;43.18
41218;BME280;26950;50.960;7.138;2024-02-28T12:49:08;101110.72;;;15.46;43.91
41218;BME280;26950;50.960;7.138;2024-02-28T12:51:39;101098.81;;;15.18;44.03
41218;BME280;26950;50.960;7.138;2024-02-28T12:54:06;101117.41;;;14.74;44.95
41218;BME280;26950;50.960;7.138;2024-02-28T12:56:34;101108.22;;;14.53;44.83